Cougar, WA

7:38 AM PST on December 28, 2014 (GMT -0800)
Scappoose Industrial | Change Station
CLOSE
Current Station
Airport
Location: Scappoose,
Elevation: 56 ft
Nearby Weather Stations
Active Advisory: Special Statement Active Notice: Public Information Statement

Elev 56 ft 45.77 °N, 122.86 °W | Updated 45 minutes ago

Overcast
Overcast
42 °F
Feels Like 42 °F
N
0
Wind Variable Wind from North

Today
High -- | Low -- °F
--% Chance of Precip.
Yesterday
High -- | Low -- °F
Precip. -- in
7:50 AM 4:30 PM
Waxing Crescent, 49% visible
Pressure 30.24 in
Visibility 10.0 miles
Clouds Scattered Clouds 4700 ft
Mostly Cloudy 6000 ft
Overcast 7500 ft
Dew Point 37 °F
Humidity 82%
Rainfall 0.07 in
Snow Depth Not available.
UV 0 out of 12
Pollen .20 out of 12
Air Quality Not available.
Flu Activity Not available.
METAR KSPB 281453Z AUTO 00000KT 10SM SCT047 BKN060 OVC075 06/03 A3024 RMK AO2 RAE1357 SLP240 P0001 60001 T00560028 53009

More Conditions Fewer Conditions

Pressure 30.24 in
Visibility 10.0 miles
Clouds Scattered Clouds 4700 ft
Mostly Cloudy 6000 ft
Overcast 7500 ft
Dew Point 37 °F
Humidity 82%
Rainfall 0.07 in
Snow Depth Not available.
UV 0 out of 12
Pollen .20 out of 12
Air Quality Not available.
Flu Activity Not available.
METAR KSPB 281453Z AUTO 00000KT 10SM SCT047 BKN060 OVC075 06/03 A3024 RMK AO2 RAE1357 SLP240 P0001 60001 T00560028 53009

More Conditions Fewer Conditions

10-Day Weather Forecast

Almanac

Astronomy

Dec. 28, 2014 Rise Set
Actual Time
Civil Twilight
Nautical Twilight
Astronomical Twilight
Moon
Length of Visible Light
Length of Day
Tomorrow will be .
, % of the Moon is Illuminated

Today's Extremes

State Highs State Lows

Community

WunderPhotos

Upload Photos

1,781,307 photos uploaded!

WunderBlogs® & News

Nearby

Air Quality

  Air Quality AQ Index Pollutant
Not available.

Snow Depth

Station Depth Elevation

Earthquake Activity

City Distance Mag. Time & Date
Minimum magnitude displayed is 2.5.

Coastal Water Temperatures

Place Temperature

Nearby Weather Stations